Time;durP1;ratioP1;P1;durP2;ratioP2;P2;SDS_P1;SDS_P2;PMS_P1;PMS_P2;Temp;Humidity;BMP_temperature;BMP_pressure;BME280_temperature;BME280_humidity;BME280_pressure;Samples;Min_cycle;Max_cycle;Signal;HPM_P1;HPM_P2
2024/03/01 00:00:25;;;;;;;41.03;31.97;;;4.30;99.90;;;;;;4841730;29;20210;-78
2024/03/01 00:02:52;;;;;;;40.20;30.70;;;4.40;99.90;;;;;;4841784;29;20555;-78
2024/03/01 00:05:19;;;;;;;38.20;30.00;;;4.40;99.90;;;;;;4840142;29;20230;-78
2024/03/01 00:07:46;;;;;;;38.03;30.47;;;4.50;99.90;;;;;;4840345;29;20223;-77
2024/03/01 00:10:13;;;;;;;38.70;29.30;;;4.50;99.90;;;;;;4840285;29;20214;-78
2024/03/01 00:12:40;;;;;;;40.57;30.73;;;4.50;99.90;;;;;;4840404;29;20738;-78
2024/03/01 00:15:08;;;;;;;42.50;31.83;;;4.50;99.90;;;;;;4840432;29;20274;-78
2024/03/01 00:17:35;;;;;;;32.83;27.60;;;4.60;99.90;;;;;;4839882;29;20209;-78
2024/03/01 00:20:02;;;;;;;36.03;29.83;;;4.60;99.90;;;;;;4840343;29;20214;-78
2024/03/01 00:22:29;;;;;;;34.27;27.33;;;4.60;99.90;;;;;;4840342;29;20207;-77
2024/03/01 00:24:56;;;;;;;38.57;30.80;;;4.60;99.90;;;;;;4840106;29;20267;-78
2024/03/01 00:27:22;;;;;;;40.37;30.60;;;4.60;99.90;;;;;;4841888;29;20659;-78
2024/03/01 00:29:49;;;;;;;41.07;30.30;;;4.60;99.90;;;;;;4839962;29;20206;-77
2024/03/01 00:32:17;;;;;;;40.13;30.67;;;4.60;99.90;;;;;;4840077;29;20231;-78
2024/03/01 00:34:44;;;;;;;39.33;30.23;;;4.60;99.90;;;;;;4841566;29;20253;-78
2024/03/01 00:37:11;;;;;;;33.27;27.90;;;4.60;99.90;;;;;;4840453;29;20204;-78
2024/03/01 00:39:37;;;;;;;42.80;30.40;;;4.50;99.90;;;;;;4841358;29;20227;-78
2024/03/01 00:42:05;;;;;;;38.03;30.37;;;4.40;99.90;;;;;;4840155;29;20583;-78
2024/03/01 00:44:32;;;;;;;41.57;30.47;;;4.40;99.90;;;;;;4839686;29;20346;-78
2024/03/01 00:46:58;;;;;;;39.73;30.27;;;4.40;99.90;;;;;;4841349;29;20310;-78
2024/03/01 00:49:27;;;;;;;41.33;31.40;;;4.40;99.90;;;;;;4839785;29;20206;-78
2024/03/01 00:51:53;;;;;;;34.33;28.40;;;4.40;99.90;;;;;;4840044;29;20563;-78
2024/03/01 00:54:20;;;;;;;34.77;29.00;;;4.40;99.90;;;;;;4840068;29;20219;-78
2024/03/01 00:56:48;;;;;;;36.57;28.40;;;4.40;99.90;;;;;;4839909;29;20648;-78
2024/03/01 00:59:15;;;;;;;34.83;28.23;;;4.40;99.90;;;;;;4840293;29;20213;-78
2024/03/01 01:01:42;;;;;;;35.30;29.17;;;4.40;99.90;;;;;;4840016;29;20206;-78
2024/03/01 01:04:09;;;;;;;34.43;28.47;;;4.40;99.90;;;;;;4839925;29;20227;-77
2024/03/01 01:06:37;;;;;;;32.53;27.87;;;4.50;99.90;;;;;;4840320;29;20714;-77
2024/03/01 01:09:04;;;;;;;31.47;26.50;;;4.50;99.90;;;;;;4840418;29;20662;-78
2024/03/01 01:11:31;;;;;;;39.70;28.50;;;4.50;99.90;;;;;;4841311;29;20595;-78
2024/03/01 01:13:57;;;;;;;38.20;29.43;;;4.50;99.90;;;;;;4839736;29;20223;-78
2024/03/01 01:16:24;;;;;;;39.33;30.00;;;4.40;99.90;;;;;;4840020;29;20198;-78
2024/03/01 01:18:52;;;;;;;33.77;28.07;;;4.40;99.90;;;;;;4840002;29;20730;-78
2024/03/01 01:21:19;;;;;;;34.27;27.73;;;4.40;99.90;;;;;;4841153;29;20231;-78
2024/03/01 01:23:47;;;;;;;36.07;28.23;;;4.40;99.90;;;;;;4839915;29;20250;-78
2024/03/01 01:26:14;;;;;;;34.10;27.90;;;4.40;99.90;;;;;;4836105;29;20218;-78
2024/03/01 01:28:41;;;;;;;31.47;26.83;;;4.50;99.90;;;;;;4837019;29;20276;-78
2024/03/01 01:31:08;;;;;;;32.27;27.50;;;4.50;99.90;;;;;;4842987;29;20211;-78
2024/03/01 01:33:35;;;;;;;32.37;26.43;;;4.50;99.90;;;;;;4844660;29;20242;-78
2024/03/01 01:36:02;;;;;;;31.70;27.00;;;4.50;99.90;;;;;;4843580;29;20206;-78
2024/03/01 01:38:29;;;;;;;35.07;28.13;;;4.50;99.90;;;;;;4843176;29;20211;-78
2024/03/01 01:40:57;;;;;;;32.87;28.90;;;4.60;99.90;;;;;;4842798;29;20564;-77
2024/03/01 01:43:24;;;;;;;30.87;27.33;;;4.50;99.90;;;;;;4844491;29;20634;-78
2024/03/01 01:45:51;;;;;;;36.83;29.53;;;4.60;99.90;;;;;;4844014;29;20207;-78
2024/03/01 01:48:18;;;;;;;33.00;26.37;;;4.60;99.90;;;;;;4842873;29;20227;-78
2024/03/01 01:50:45;;;;;;;40.53;29.60;;;4.50;99.90;;;;;;4844059;29;20205;-78
2024/03/01 01:53:12;;;;;;;39.20;29.70;;;4.50;99.90;;;;;;4843213;29;20219;-78
2024/03/01 01:55:39;;;;;;;35.63;28.70;;;4.50;99.90;;;;;;4842745;29;20729;-78
2024/03/01 01:58:07;;;;;;;34.33;27.37;;;4.50;99.90;;;;;;4842798;29;20206;-78
2024/03/01 02:00:37;;;;;;;33.53;27.00;;;4.40;99.90;;;;;;4848041;29;20570;-78
2024/03/01 02:03:04;;;;;;;37.50;29.23;;;4.40;99.90;;;;;;4843836;29;20222;-77
2024/03/01 02:05:32;;;;;;;41.77;30.23;;;4.40;99.90;;;;;;4842407;29;20730;-78
2024/03/01 02:07:59;;;;;;;38.40;30.27;;;4.40;99.90;;;;;;4842885;29;20816;-77
2024/03/01 02:10:26;;;;;;;36.70;29.53;;;4.40;99.90;;;;;;4842117;29;20279;-78
2024/03/01 02:12:54;;;;;;;38.47;31.37;;;4.40;99.90;;;;;;4842820;29;20324;-78
2024/03/01 02:15:23;;;;;;;32.10;27.60;;;4.50;99.90;;;;;;4842125;29;20233;-77
2024/03/01 02:17:50;;;;;;;31.47;27.00;;;4.40;99.90;;;;;;4843672;29;20262;-78
2024/03/01 02:20:19;;;;;;;30.00;26.60;;;4.50;99.90;;;;;;4843589;29;20695;-78
2024/03/01 02:22:50;;;;;;;29.77;26.47;;;4.40;99.90;;;;;;4842925;29;20241;-78
2024/03/01 02:25:19;;;;;;;37.40;28.87;;;4.40;99.90;;;;;;4843518;29;20309;-78
2024/03/01 02:27:46;;;;;;;37.27;29.80;;;4.40;99.90;;;;;;4840873;29;20648;-78
2024/03/01 02:30:14;;;;;;;35.70;30.13;;;4.50;99.90;;;;;;4843327;29;20226;-78
2024/03/01 02:32:40;;;;;;;35.80;29.40;;;4.40;99.90;;;;;;4843134;29;21845;-78
2024/03/01 02:35:08;;;;;;;31.97;28.23;;;4.40;99.90;;;;;;4843393;29;20664;-78
2024/03/01 02:37:35;;;;;;;34.27;28.17;;;4.40;99.90;;;;;;4843572;29;20651;-78
2024/03/01 02:40:03;;;;;;;32.70;29.00;;;4.40;99.90;;;;;;4842888;29;20618;-77
2024/03/01 02:42:32;;;;;;;33.10;27.43;;;4.40;99.90;;;;;;4843022;29;20215;-78
2024/03/01 02:45:00;;;;;;;32.40;26.80;;;4.40;99.90;;;;;;4835996;29;20234;-78
2024/03/01 02:47:26;;;;;;;30.67;26.80;;;4.40;99.90;;;;;;4841460;29;20234;-78
2024/03/01 02:49:53;;;;;;;35.17;28.70;;;4.40;99.90;;;;;;4843071;29;20203;-78
2024/03/01 02:52:20;;;;;;;39.07;29.33;;;4.40;99.90;;;;;;4843585;29;20209;-78
2024/03/01 02:54:47;;;;;;;34.00;28.70;;;4.40;99.90;;;;;;4843677;29;20262;-78
2024/03/01 02:57:14;;;;;;;33.43;28.97;;;4.40;99.90;;;;;;4842962;29;20256;-79
2024/03/01 02:59:42;;;;;;;39.23;31.23;;;4.40;99.90;;;;;;4843149;29;20267;-78
2024/03/01 03:02:08;;;;;;;35.60;28.00;;;4.40;99.90;;;;;;4843289;29;20211;-78
2024/03/01 03:04:35;;;;;;;32.27;26.57;;;4.40;99.90;;;;;;4843768;29;20250;-77
2024/03/01 03:07:02;;;;;;;32.40;28.37;;;4.40;99.90;;;;;;4842808;29;20225;-78
2024/03/01 03:09:29;;;;;;;30.30;26.97;;;4.50;99.90;;;;;;4841777;29;20218;-78
2024/03/01 03:11:56;;;;;;;30.10;25.47;;;4.50;99.90;;;;;;4841407;29;20205;-78
2024/03/01 03:14:22;;;;;;;30.63;26.63;;;4.40;99.90;;;;;;4843144;29;20227;-78
2024/03/01 03:16:51;;;;;;;36.63;29.33;;;4.40;99.90;;;;;;4842668;29;20206;-78
2024/03/01 03:19:18;;;;;;;37.00;30.10;;;4.40;99.90;;;;;;4842927;29;20265;-78
2024/03/01 03:21:45;;;;;;;37.23;30.73;;;4.40;99.90;;;;;;4842569;29;20592;-78
2024/03/01 03:24:11;;;;;;;34.53;28.53;;;4.40;99.90;;;;;;4841749;29;20679;-78
2024/03/01 03:26:38;;;;;;;32.23;28.13;;;4.40;99.90;;;;;;4841647;29;20215;-78
2024/03/01 03:29:05;;;;;;;31.20;26.37;;;4.40;99.90;;;;;;4842546;29;20246;-78
2024/03/01 03:31:32;;;;;;;38.03;30.53;;;4.40;99.90;;;;;;4842745;29;20686;-79
2024/03/01 03:34:00;;;;;;;42.63;31.10;;;4.30;99.90;;;;;;4842751;29;20272;-78
2024/03/01 03:36:27;;;;;;;40.53;31.97;;;4.30;99.90;;;;;;4842975;29;20245;-77
2024/03/01 03:38:54;;;;;;;42.50;32.97;;;4.30;99.90;;;;;;4842706;29;20580;-78
2024/03/01 03:41:21;;;;;;;39.83;30.80;;;4.40;99.90;;;;;;4841276;29;20230;-80
2024/03/01 03:43:47;;;;;;;37.20;29.63;;;4.40;99.90;;;;;;4842121;29;20238;-77
2024/03/01 03:46:14;;;;;;;38.37;30.00;;;4.40;99.90;;;;;;4841472;29;20267;-78
2024/03/01 03:48:41;;;;;;;39.00;31.13;;;4.40;99.90;;;;;;4842344;29;20238;-78
2024/03/01 03:51:09;;;;;;;34.60;29.83;;;4.40;99.90;;;;;;4838441;29;20211;-80
2024/03/01 03:53:36;;;;;;;32.13;28.63;;;4.40;99.90;;;;;;4840697;29;20203;-78
2024/03/01 03:56:04;;;;;;;39.33;30.57;;;4.50;99.90;;;;;;4840701;29;20233;-78
2024/03/01 03:58:31;;;;;;;35.90;29.07;;;4.50;99.90;;;;;;4834962;29;20374;-79
2024/03/01 04:00:58;;;;;;;33.73;28.27;;;4.50;99.90;;;;;;4834181;29;20222;-79
2024/03/01 04:03:25;;;;;;;31.37;26.87;;;4.50;99.90;;;;;;4835210;29;20207;-79
2024/03/01 04:05:51;;;;;;;32.53;27.60;;;4.50;99.90;;;;;;4841284;29;20200;-79
2024/03/01 04:08:20;;;;;;;33.70;27.73;;;4.50;99.90;;;;;;4834287;29;20219;-79
2024/03/01 04:10:46;;;;;;;34.33;27.73;;;4.50;99.90;;;;;;4833621;29;20257;-79
2024/03/01 04:13:13;;;;;;;40.57;31.20;;;4.50;99.90;;;;;;4840496;29;20210;-77
2024/03/01 04:15:40;;;;;;;32.03;28.13;;;4.40;99.90;;;;;;4840384;29;20237;-77
2024/03/01 04:18:08;;;;;;;37.53;29.20;;;4.50;99.90;;;;;;4839871;29;20263;-79
2024/03/01 04:20:35;;;;;;;32.77;29.17;;;4.50;99.90;;;;;;4839774;29;20217;-78
2024/03/01 04:23:04;;;;;;;36.70;27.90;;;4.50;99.90;;;;;;4841730;29;20207;-78
2024/03/01 04:25:34;;;;;;;31.33;26.63;;;4.50;99.90;;;;;;4840425;29;20238;-79
2024/03/01 04:28:01;;;;;;;29.47;26.30;;;4.60;99.90;;;;;;4843306;29;20223;-79
2024/03/01 04:30:28;;;;;;;36.13;28.03;;;4.60;99.90;;;;;;4841247;29;20210;-79
2024/03/01 04:32:55;;;;;;;35.13;26.40;;;4.60;99.90;;;;;;4841124;29;20191;-79
2024/03/01 04:35:22;;;;;;;32.87;27.23;;;4.70;99.90;;;;;;4839998;29;20261;-79
2024/03/01 04:37:49;;;;;;;30.10;26.50;;;4.70;99.90;;;;;;4841044;29;20267;-79
2024/03/01 04:40:15;;;;;;;30.30;26.63;;;4.80;99.90;;;;;;4840144;29;20292;-79
2024/03/01 04:42:44;;;;;;;34.20;28.13;;;4.80;99.90;;;;;;4839887;29;20241;-78
2024/03/01 04:45:10;;;;;;;36.97;29.70;;;4.70;99.90;;;;;;4840314;29;20238;-77
2024/03/01 04:47:37;;;;;;;40.00;30.80;;;4.70;99.90;;;;;;4842710;29;20222;-77
2024/03/01 04:50:06;;;;;;;36.60;30.03;;;4.80;99.90;;;;;;4843459;29;20211;-77
2024/03/01 04:52:33;;;;;;;40.67;29.77;;;4.80;99.90;;;;;;4842507;29;20721;-77
2024/03/01 04:55:00;;;;;;;40.70;30.60;;;4.80;99.90;;;;;;4837536;29;20229;-78
2024/03/01 04:57:27;;;;;;;39.10;29.57;;;4.80;99.90;;;;;;4844391;29;20210;-77
2024/03/01 04:59:55;;;;;;;40.97;30.57;;;4.90;99.90;;;;;;4854401;29;20679;-78
2024/03/01 05:02:22;;;;;;;37.57;30.97;;;4.90;99.90;;;;;;4842917;29;20694;-78
2024/03/01 05:04:49;;;;;;;35.10;29.80;;;5.00;99.90;;;;;;4846316;29;20235;-77
2024/03/01 05:07:16;;;;;;;42.73;30.90;;;5.10;99.90;;;;;;4845324;29;20210;-77
2024/03/01 05:09:43;;;;;;;40.00;30.13;;;5.20;99.90;;;;;;4843656;29;20226;-77
2024/03/01 05:12:13;;;;;;;36.13;29.27;;;5.20;99.90;;;;;;4844807;29;20210;-77
2024/03/01 05:14:40;;;;;;;35.20;28.30;;;5.30;99.90;;;;;;4845117;29;20668;-77
2024/03/01 05:17:09;;;;;;;38.30;28.73;;;5.30;99.90;;;;;;4845102;29;20643;-78
2024/03/01 05:19:38;;;;;;;30.87;27.27;;;5.40;99.90;;;;;;4844369;29;20281;-77
2024/03/01 05:22:08;;;;;;;34.37;28.77;;;5.40;99.90;;;;;;4845153;29;20263;-77
2024/03/01 05:24:35;;;;;;;37.70;28.17;;;5.50;99.90;;;;;;4844818;29;20326;-78
2024/03/01 05:27:02;;;;;;;32.07;28.63;;;5.60;99.90;;;;;;4844743;29;20226;-77
2024/03/01 05:29:29;;;;;;;34.80;29.93;;;5.60;99.90;;;;;;4845894;29;20231;-78
2024/03/01 05:31:56;;;;;;;34.87;27.67;;;5.60;99.90;;;;;;4845190;29;20242;-77
2024/03/01 05:34:24;;;;;;;29.37;26.00;;;5.70;99.90;;;;;;4844574;29;20224;-78
2024/03/01 05:36:51;;;;;;;31.50;26.87;;;5.70;99.90;;;;;;4846119;29;20205;-78
2024/03/01 05:39:18;;;;;;;31.30;27.23;;;5.70;99.90;;;;;;4845322;29;20251;-78
2024/03/01 05:41:45;;;;;;;31.27;27.90;;;5.60;99.90;;;;;;4845225;29;20840;-78
2024/03/01 05:44:12;;;;;;;31.73;27.90;;;5.50;99.90;;;;;;4844853;29;20231;-78
2024/03/01 05:46:39;;;;;;;35.27;29.73;;;5.40;99.90;;;;;;4844630;29;20767;-77
2024/03/01 05:49:06;;;;;;;38.73;31.13;;;5.40;99.90;;;;;;4844289;29;20240;-77
2024/03/01 05:51:34;;;;;;;37.90;31.23;;;5.40;99.90;;;;;;4845593;29;20251;-78
2024/03/01 05:54:01;;;;;;;38.70;28.93;;;5.30;99.90;;;;;;4844069;29;20223;-78
2024/03/01 05:56:28;;;;;;;32.30;27.60;;;5.40;99.90;;;;;;4845169;29;20214;-78
2024/03/01 05:58:54;;;;;;;34.40;28.03;;;5.40;99.90;;;;;;4845773;29;20222;-77
2024/03/01 06:01:21;;;;;;;35.00;29.67;;;5.40;99.90;;;;;;4845445;29;20204;-77
2024/03/01 06:03:48;;;;;;;31.20;27.67;;;5.40;99.90;;;;;;4843758;29;20258;-78
2024/03/01 06:06:18;;;;;;;34.93;28.27;;;5.40;99.90;;;;;;4845024;29;20204;-78
2024/03/01 06:08:47;;;;;;;36.00;29.87;;;5.40;99.90;;;;;;4842473;29;20311;-78
2024/03/01 06:11:13;;;;;;;34.47;29.03;;;5.30;99.90;;;;;;4843551;29;20564;-78
2024/03/01 06:13:41;;;;;;;32.83;27.97;;;5.30;99.90;;;;;;4843763;29;20723;-78
2024/03/01 06:16:08;;;;;;;30.93;27.13;;;5.40;99.90;;;;;;4843554;29;20223;-78
2024/03/01 06:18:35;;;;;;;38.23;31.07;;;5.40;99.90;;;;;;4845196;29;20234;-78
2024/03/01 06:21:02;;;;;;;30.97;27.53;;;5.40;99.90;;;;;;4844499;29;20604;-77
2024/03/01 06:23:29;;;;;;;40.80;32.07;;;5.40;99.90;;;;;;4844927;29;20207;-77
2024/03/01 06:25:57;;;;;;;35.40;29.53;;;5.40;99.90;;;;;;4843586;29;20602;-78
2024/03/01 06:28:24;;;;;;;35.60;28.93;;;5.40;99.90;;;;;;4843480;29;20224;-78
2024/03/01 06:30:51;;;;;;;33.83;28.70;;;5.40;99.90;;;;;;4843463;29;20727;-77
2024/03/01 06:33:19;;;;;;;34.33;29.17;;;5.40;99.90;;;;;;4845423;29;20699;-78
2024/03/01 06:35:46;;;;;;;31.73;28.10;;;5.50;99.90;;;;;;4843851;29;20208;-78
2024/03/01 06:38:13;;;;;;;33.00;28.17;;;5.50;99.90;;;;;;4836687;29;20208;-78
2024/03/01 06:40:40;;;;;;;33.00;27.13;;;5.60;99.90;;;;;;4845180;29;20216;-77
2024/03/01 06:43:08;;;;;;;29.20;26.10;;;5.70;99.90;;;;;;4844782;29;20715;-77
2024/03/01 06:45:34;;;;;;;31.73;26.33;;;5.70;99.90;;;;;;4843040;29;20665;-78
2024/03/01 06:48:01;;;;;;;29.63;26.53;;;5.70;99.90;;;;;;4844045;29;20212;-77
2024/03/01 06:50:28;;;;;;;32.43;28.10;;;5.80;99.90;;;;;;4844299;29;20242;-77
2024/03/01 06:52:55;;;;;;;30.23;27.03;;;5.90;99.90;;;;;;4843055;29;20307;-77
2024/03/01 06:55:22;;;;;;;30.33;26.97;;;5.90;99.90;;;;;;4845215;29;20255;-78
2024/03/01 06:57:49;;;;;;;31.20;27.53;;;5.90;99.90;;;;;;4844245;29;20265;-78
2024/03/01 07:00:17;;;;;;;30.00;26.80;;;6.10;99.90;;;;;;4843603;29;20253;-78
2024/03/01 07:02:44;;;;;;;32.27;27.27;;;6.20;99.90;;;;;;4842469;29;20205;-78
2024/03/01 07:05:11;;;;;;;28.23;25.23;;;6.30;99.90;;;;;;4842217;29;20229;-77
2024/03/01 07:07:38;;;;;;;30.57;26.17;;;6.40;99.90;;;;;;4842939;29;20262;-78
2024/03/01 07:10:06;;;;;;;26.30;23.63;;;6.50;99.90;;;;;;4842962;29;20227;-77
2024/03/01 07:12:32;;;;;;;29.03;25.97;;;6.60;99.90;;;;;;4841817;29;20217;-77
2024/03/01 07:14:59;;;;;;;26.87;23.93;;;6.70;99.90;;;;;;4841387;29;20264;-78
2024/03/01 07:17:27;;;;;;;27.40;24.60;;;6.80;99.90;;;;;;4843027;29;20209;-77
2024/03/01 07:19:54;;;;;;;28.37;25.33;;;6.90;99.90;;;;;;4841304;29;20708;-78
2024/03/01 07:22:21;;;;;;;29.40;25.73;;;7.00;99.90;;;;;;4841506;29;20236;-77
2024/03/01 07:24:48;;;;;;;30.20;26.27;;;7.00;99.90;;;;;;4842733;29;20227;-77
2024/03/01 07:27:15;;;;;;;30.23;25.37;;;7.00;99.90;;;;;;4842256;29;20203;-78
2024/03/01 07:29:42;;;;;;;27.37;24.73;;;7.10;99.90;;;;;;4842840;29;20234;-77
2024/03/01 07:32:08;;;;;;;25.93;23.33;;;7.10;99.90;;;;;;4842512;29;20226;-78
2024/03/01 07:34:37;;;;;;;26.57;23.87;;;7.20;99.90;;;;;;4842658;29;20223;-77
2024/03/01 07:37:04;;;;;;;27.57;24.77;;;7.20;99.90;;;;;;4841309;29;20266;-77
2024/03/01 07:39:30;;;;;;;28.07;25.17;;;7.20;99.90;;;;;;4842645;29;20704;-77
2024/03/01 07:41:57;;;;;;;26.87;24.17;;;7.20;99.90;;;;;;4842798;29;20674;-77
2024/03/01 07:44:24;;;;;;;28.77;25.77;;;7.20;99.90;;;;;;4840810;29;20622;-77
2024/03/01 07:46:57;;;;;;;27.53;24.67;;;7.20;99.90;;;;;;4842081;29;20213;-77
2024/03/01 07:49:24;;;;;;;30.27;25.70;;;7.30;99.90;;;;;;4841134;29;20230;-78
2024/03/01 07:51:53;;;;;;;31.30;27.60;;;7.30;99.90;;;;;;4842356;29;20560;-77
2024/03/01 07:54:20;;;;;;;38.30;28.00;;;7.30;99.90;;;;;;4840833;29;20233;-77
2024/03/01 07:56:46;;;;;;;33.47;26.93;;;7.30;99.90;;;;;;4841817;29;20218;-77
2024/03/01 07:59:13;;;;;;;29.70;26.07;;;7.40;99.90;;;;;;4842307;29;20682;-77
2024/03/01 08:01:40;;;;;;;29.53;25.93;;;7.50;99.90;;;;;;4841415;29;20694;-77
2024/03/01 08:04:07;;;;;;;29.30;26.20;;;7.60;99.90;;;;;;4842056;29;20225;-77
2024/03/01 08:06:33;;;;;;;29.70;26.53;;;7.70;99.90;;;;;;4842146;29;20257;-77
2024/03/01 08:09:02;;;;;;;28.67;25.47;;;7.70;99.90;;;;;;4837221;29;20234;-77
2024/03/01 08:11:42;;;;;;;31.43;27.43;;;7.80;99.90;;;;;;4833050;29;20206;-77
2024/03/01 08:14:21;;;;;;;27.60;24.60;;;7.90;99.90;;;;;;4849994;29;20256;-78
2024/03/01 08:16:51;;;;;;;29.47;26.30;;;8.00;99.90;;;;;;4829418;29;20210;-77
2024/03/01 08:19:18;;;;;;;28.73;25.67;;;8.00;99.90;;;;;;4827715;29;20190;-78
2024/03/01 08:21:44;;;;;;;27.20;24.40;;;8.00;99.90;;;;;;4846158;29;20686;-78
2024/03/01 08:24:19;;;;;;;26.80;23.90;;;8.00;99.90;;;;;;4839877;29;20227;-78
2024/03/01 08:26:46;;;;;;;28.07;25.17;;;8.00;99.90;;;;;;4836391;29;20215;-77
2024/03/01 08:29:13;;;;;;;29.17;25.50;;;8.00;99.90;;;;;;4836467;29;20332;-78
2024/03/01 08:31:40;;;;;;;31.67;27.17;;;8.00;99.90;;;;;;4836948;29;20206;-78
2024/03/01 08:34:09;;;;;;;30.07;25.77;;;7.90;99.90;;;;;;4840691;29;20510;-78
2024/03/01 08:36:37;;;;;;;28.93;25.57;;;7.90;99.90;;;;;;4840134;29;20301;-78
2024/03/01 08:39:15;;;;;;;29.90;26.20;;;8.00;99.90;;;;;;4842766;29;20198;-78
2024/03/01 08:41:44;;;;;;;31.50;27.07;;;8.00;99.90;;;;;;4844331;29;20678;-78
2024/03/01 08:44:46;;;;;;;34.57;27.50;;;8.10;99.90;;;;;;4845308;29;20630;-78
2024/03/01 08:47:24;;;;;;;32.87;27.40;;;8.10;99.90;;;;;;4841618;29;20670;-77
2024/03/01 08:50:33;;;;;;;32.07;27.43;;;8.10;99.90;;;;;;4842100;29;20313;-80
2024/03/01 08:53:00;;;;;;;35.00;28.57;;;8.20;99.90;;;;;;4841703;29;20203;-78
2024/03/01 08:55:41;;;;;;;35.43;27.83;;;8.20;99.90;;;;;;4839073;29;20238;-77
2024/03/01 08:58:20;;;;;;;32.67;28.10;;;8.20;99.90;;;;;;4845023;29;20310;-77
2024/03/01 09:00:52;;;;;;;32.60;28.87;;;8.30;99.90;;;;;;4845227;29;20293;-77
2024/03/01 09:03:23;;;;;;;34.87;28.93;;;8.30;99.90;;;;;;4844874;29;20209;-77
2024/03/01 09:05:52;;;;;;;32.57;27.70;;;8.30;99.90;;;;;;4844708;29;20213;-77
2024/03/01 09:08:24;;;;;;;34.13;28.47;;;8.30;99.90;;;;;;4843553;29;20215;-78
2024/03/01 09:10:54;;;;;;;30.87;27.57;;;8.40;99.90;;;;;;4842969;29;20328;-77
2024/03/01 09:13:21;;;;;;;31.80;26.00;;;8.50;99.90;;;;;;4845082;29;20207;-77
2024/03/01 09:15:50;;;;;;;32.07;28.13;;;8.60;99.90;;;;;;4844188;29;20206;-78
2024/03/01 09:18:43;;;;;;;33.17;28.03;;;8.60;99.90;;;;;;4844810;29;20206;-78
2024/03/01 09:21:44;;;;;;;30.97;27.63;;;8.60;99.90;;;;;;4845030;29;20290;-76
2024/03/01 09:24:17;;;;;;;31.17;27.60;;;8.60;99.90;;;;;;4845041;29;20227;-77
2024/03/01 09:26:46;;;;;;;34.17;28.03;;;8.70;99.90;;;;;;4845311;29;20271;-78
2024/03/01 09:29:34;;;;;;;30.23;26.23;;;8.70;99.90;;;;;;4844367;29;20249;-77
2024/03/01 09:32:02;;;;;;;27.87;24.87;;;8.80;99.90;;;;;;4842201;29;20234;-78
2024/03/01 09:34:34;;;;;;;29.97;25.63;;;8.90;99.90;;;;;;4843728;29;20317;-77
2024/03/01 09:37:01;;;;;;;27.87;24.97;;;8.90;99.90;;;;;;4845246;29;20301;-77
2024/03/01 09:39:30;;;;;;;27.80;24.93;;;9.00;99.90;;;;;;4844422;29;20349;-77
2024/03/01 09:42:09;;;;;;;27.40;24.67;;;9.00;99.90;;;;;;4844812;29;20292;-78
2024/03/01 09:45:02;;;;;;;28.67;25.20;;;9.10;99.90;;;;;;4843601;29;20333;-77
2024/03/01 09:47:38;;;;;;;27.43;24.53;;;9.10;99.90;;;;;;4844941;29;20305;-78
2024/03/01 09:50:19;;;;;;;29.43;26.27;;;9.10;99.90;;;;;;4842845;29;20580;-77
2024/03/01 09:52:57;;;;;;;30.87;27.57;;;9.10;99.90;;;;;;4843545;29;20748;-77
2024/03/01 09:55:34;;;;;;;29.87;26.63;;;9.10;99.90;;;;;;4844192;29;20233;-77
2024/03/01 09:58:10;;;;;;;27.27;24.37;;;9.20;99.90;;;;;;4844616;29;20397;-77
2024/03/01 10:00:43;;;;;;;26.73;24.07;;;9.20;99.90;;;;;;4839079;29;20226;-78
2024/03/01 10:03:18;;;;;;;27.03;24.13;;;9.30;99.90;;;;;;4843452;29;20204;-77
2024/03/01 10:06:17;;;;;;;27.50;24.50;;;9.30;99.90;;;;;;4842863;29;20317;-77
2024/03/01 10:08:57;;;;;;;26.57;24.07;;;9.50;99.90;;;;;;4843421;29;20215;-80
2024/03/01 10:11:30;;;;;;;25.23;22.73;;;9.60;99.90;;;;;;4843042;29;20215;-77
2024/03/01 10:14:14;;;;;;;24.20;22.07;;;9.70;99.90;;;;;;4844582;29;20296;-77
2024/03/01 10:16:54;;;;;;;23.57;21.40;;;9.80;99.90;;;;;;4852365;29;20218;-77
2024/03/01 10:19:35;;;;;;;26.17;23.63;;;9.80;99.90;;;;;;4843046;29;20200;-77
2024/03/01 10:22:15;;;;;;;25.17;22.57;;;9.80;99.90;;;;;;4843443;29;20655;-78
2024/03/01 10:25:00;;;;;;;24.57;22.17;;;9.80;99.90;;;;;;4842942;29;20291;-77
2024/03/01 10:27:36;;;;;;;25.47;22.83;;;9.70;99.90;;;;;;4844268;29;20207;-77
2024/03/01 10:30:11;;;;;;;24.13;21.97;;;9.80;99.90;;;;;;4843498;29;20586;-77
2024/03/01 10:33:03;;;;;;;25.40;22.93;;;9.80;99.90;;;;;;4844114;29;20273;-78
2024/03/01 10:35:40;;;;;;;25.80;23.40;;;9.90;99.90;;;;;;4844048;29;20223;-78
2024/03/01 10:38:14;;;;;;;25.47;23.07;;;10.00;99.90;;;;;;4843965;29;20204;-77
2024/03/01 10:40:47;;;;;;;25.10;22.73;;;10.10;99.90;;;;;;4842351;29;20575;-78
2024/03/01 10:43:32;;;;;;;22.80;20.53;;;10.20;99.90;;;;;;4842500;29;20234;-78
2024/03/01 10:46:06;;;;;;;22.40;20.30;;;10.30;99.90;;;;;;4842652;29;20592;-78
2024/03/01 10:48:43;;;;;;;24.37;22.00;;;10.40;99.90;;;;;;4842535;29;20280;-77
2024/03/01 10:51:15;;;;;;;24.40;22.10;;;10.50;99.90;;;;;;4842096;29;20234;-77
2024/03/01 10:53:48;;;;;;;23.93;21.63;;;10.60;99.90;;;;;;4843617;29;20240;-77
2024/03/01 10:56:16;;;;;;;24.63;22.37;;;10.50;99.90;;;;;;4842089;29;20247;-77
2024/03/01 10:58:48;;;;;;;24.87;22.50;;;10.50;99.90;;;;;;4842030;29;20207;-77
2024/03/01 11:01:25;;;;;;;24.87;22.43;;;10.50;99.90;;;;;;4841651;29;20205;-78
2024/03/01 11:03:58;;;;;;;24.30;22.10;;;10.50;99.90;;;;;;4843564;29;20804;-77
2024/03/01 11:06:31;;;;;;;24.30;22.10;;;10.70;99.90;;;;;;4843592;29;20215;-77
2024/03/01 11:09:03;;;;;;;26.20;22.83;;;10.80;99.90;;;;;;4841981;29;20274;-77
2024/03/01 11:11:37;;;;;;;27.83;25.03;;;10.90;99.90;;;;;;4842482;29;20233;-77
2024/03/01 11:14:05;;;;;;;26.00;23.53;;;10.90;99.90;;;;;;4843344;29;20651;-80
2024/03/01 11:16:37;;;;;;;27.67;24.53;;;11.10;99.90;;;;;;4842979;29;20645;-79
2024/03/01 11:19:10;;;;;;;26.87;24.17;;;11.20;99.90;;;;;;4841423;29;20205;-78
2024/03/01 11:21:39;;;;;;;23.77;21.47;;;11.30;99.90;;;;;;4843034;29;20210;-78
2024/03/01 11:24:15;;;;;;;23.80;21.47;;;11.30;99.90;;;;;;4841766;29;20306;-78
2024/03/01 11:26:43;;;;;;;16.67;13.87;;;11.30;99.90;;;;;;4842959;29;20209;-77
2024/03/01 11:29:20;;;;;;;20.80;18.97;;;11.30;99.90;;;;;;4841519;29;20206;-79
2024/03/01 11:31:53;;;;;;;21.00;19.20;;;11.20;99.90;;;;;;4838036;29;20322;-80
2024/03/01 11:34:29;;;;;;;20.53;18.83;;;11.50;99.90;;;;;;4838198;29;20284;-80
2024/03/01 11:37:04;;;;;;;19.67;17.87;;;11.60;99.90;;;;;;4838014;29;20204;-78
2024/03/01 11:39:40;;;;;;;20.57;18.87;;;11.60;99.90;;;;;;4842379;29;20214;-78
2024/03/01 11:42:23;;;;;;;19.63;18.03;;;11.60;99.90;;;;;;4842191;29;20732;-78
2024/03/01 11:44:59;;;;;;;17.30;15.77;;;11.70;99.90;;;;;;4842091;29;20722;-78
2024/03/01 11:47:40;;;;;;;15.13;13.83;;;11.80;99.90;;;;;;4841088;29;20437;-78
2024/03/01 11:50:33;;;;;;;14.80;13.40;;;11.90;99.90;;;;;;4840872;29;20439;-78
2024/03/01 11:53:11;;;;;;;15.63;14.33;;;12.00;99.90;;;;;;4851172;29;20210;-77
2024/03/01 11:55:56;;;;;;;13.23;11.93;;;11.90;99.90;;;;;;4842244;29;20308;-78
2024/03/01 11:58:30;;;;;;;14.63;13.23;;;11.80;99.90;;;;;;4842342;29;20210;-77
2024/03/01 12:01:08;;;;;;;13.20;12.20;;;11.70;99.90;;;;;;4842338;29;20266;-78
2024/03/01 12:04:27;;;;;;;13.43;12.37;;;11.60;99.90;;;;;;4841221;29;20213;-78
2024/03/01 12:07:11;;;;;;;13.20;12.20;;;11.50;99.90;;;;;;4788682;29;20589;-78
2024/03/01 12:09:50;;;;;;;13.53;12.43;;;11.60;99.90;;;;;;4802805;29;20215;-77
2024/03/01 12:12:25;;;;;;;12.37;11.47;;;11.70;99.90;;;;;;4820250;29;20255;-78
2024/03/01 12:14:58;;;;;;;12.67;11.67;;;11.70;99.90;;;;;;4840681;29;20227;-79
2024/03/01 12:17:32;;;;;;;13.33;12.30;;;11.70;99.90;;;;;;4840833;29;20209;-78
2024/03/01 12:20:05;;;;;;;13.27;12.27;;;11.60;99.90;;;;;;4840310;29;20203;-79
2024/03/01 12:22:47;;;;;;;13.43;12.43;;;11.60;99.90;;;;;;4842183;29;20221;-78
2024/03/01 12:25:18;;;;;;;15.10;14.10;;;11.50;99.90;;;;;;4842863;29;20254;-80
2024/03/01 12:28:21;;;;;;;15.90;14.80;;;11.50;99.90;;;;;;4841867;29;20202;-79
2024/03/01 12:31:01;;;;;;;10.80;9.70;;;11.40;99.90;;;;;;4848859;29;20232;-79
2024/03/01 12:33:49;;;;;;;18.03;16.53;;;11.40;99.90;;;;;;4840971;29;20213;-78
2024/03/01 12:36:23;;;;;;;19.97;18.17;;;11.30;99.90;;;;;;4841049;29;20205;-79
2024/03/01 12:38:58;;;;;;;20.93;18.93;;;11.20;99.90;;;;;;4840006;29;20277;-79
2024/03/01 12:41:39;;;;;;;23.47;21.33;;;11.10;99.90;;;;;;4840248;29;20191;-79
2024/03/01 12:44:16;;;;;;;23.17;21.07;;;10.90;99.90;;;;;;4841103;29;20225;-78
2024/03/01 12:47:10;;;;;;;23.57;21.23;;;10.70;99.90;;;;;;4841988;29;20212;-78
2024/03/01 12:49:47;;;;;;;21.77;19.87;;;10.70;99.90;;;;;;4838583;29;20217;-78
2024/03/01 12:52:29;;;;;;;21.00;19.10;;;10.70;99.90;;;;;;4841133;29;20258;-79